sensor_id;sensor_type;location;lat;lon;timestamp;temperature;humidity
42683;DHT22;28293;50.930;3.464;2023-04-29T00:00:24;11.30;86.80
42683;DHT22;28293;50.930;3.464;2023-04-29T00:02:49;11.20;86.40
42683;DHT22;28293;50.930;3.464;2023-04-29T00:05:15;11.20;86.20
42683;DHT22;28293;50.930;3.464;2023-04-29T00:07:41;11.10;85.90
42683;DHT22;28293;50.930;3.464;2023-04-29T00:10:07;11.10;85.80
42683;DHT22;28293;50.930;3.464;2023-04-29T00:12:33;11.20;86.10
42683;DHT22;28293;50.930;3.464;2023-04-29T00:14:59;11.10;86.10
42683;DHT22;28293;50.930;3.464;2023-04-29T00:17:27;11.20;86.00
42683;DHT22;28293;50.930;3.464;2023-04-29T00:19:53;11.10;85.80
42683;DHT22;28293;50.930;3.464;2023-04-29T00:22:19;11.10;86.00
42683;DHT22;28293;50.930;3.464;2023-04-29T00:24:46;11.10;86.00
42683;DHT22;28293;50.930;3.464;2023-04-29T00:27:12;11.10;85.80
42683;DHT22;28293;50.930;3.464;2023-04-29T00:29:38;11.00;85.90
42683;DHT22;28293;50.930;3.464;2023-04-29T00:32:04;11.10;86.10
42683;DHT22;28293;50.930;3.464;2023-04-29T00:34:29;11.10;86.00
42683;DHT22;28293;50.930;3.464;2023-04-29T00:36:55;11.10;85.80
42683;DHT22;28293;50.930;3.464;2023-04-29T00:39:21;11.20;85.80
42683;DHT22;28293;50.930;3.464;2023-04-29T00:41:47;11.10;85.80
42683;DHT22;28293;50.930;3.464;2023-04-29T00:44:13;11.10;85.90
42683;DHT22;28293;50.930;3.464;2023-04-29T00:46:38;11.10;85.90
42683;DHT22;28293;50.930;3.464;2023-04-29T00:49:04;11.10;85.90
42683;DHT22;28293;50.930;3.464;2023-04-29T00:51:30;11.10;85.90
42683;DHT22;28293;50.930;3.464;2023-04-29T00:53:57;11.10;85.80
42683;DHT22;28293;50.930;3.464;2023-04-29T00:56:23;11.00;85.80
42683;DHT22;28293;50.930;3.464;2023-04-29T00:58:49;11.10;85.80
42683;DHT22;28293;50.930;3.464;2023-04-29T01:01:20;11.00;85.50
42683;DHT22;28293;50.930;3.464;2023-04-29T01:03:46;10.90;85.50
42683;DHT22;28293;50.930;3.464;2023-04-29T01:11:29;10.80;85.20
42683;DHT22;28293;50.930;3.464;2023-04-29T01:14:01;10.80;85.30
42683;DHT22;28293;50.930;3.464;2023-04-29T01:16:41;10.80;85.20
42683;DHT22;28293;50.930;3.464;2023-04-29T01:21:59;10.70;85.00
42683;DHT22;28293;50.930;3.464;2023-04-29T01:24:24;10.70;85.00
42683;DHT22;28293;50.930;3.464;2023-04-29T01:26:55;10.70;85.00
42683;DHT22;28293;50.930;3.464;2023-04-29T01:32:05;10.60;85.10
42683;DHT22;28293;50.930;3.464;2023-04-29T01:42:50;10.60;85.50
42683;DHT22;28293;50.930;3.464;2023-04-29T01:45:18;10.60;85.60
42683;DHT22;28293;50.930;3.464;2023-04-29T01:47:46;10.60;85.60
42683;DHT22;28293;50.930;3.464;2023-04-29T01:50:13;10.60;85.80
42683;DHT22;28293;50.930;3.464;2023-04-29T01:52:39;10.70;85.60
42683;DHT22;28293;50.930;3.464;2023-04-29T01:55:05;10.60;85.50
42683;DHT22;28293;50.930;3.464;2023-04-29T01:57:31;10.60;85.70
42683;DHT22;28293;50.930;3.464;2023-04-29T01:59:57;10.60;85.80
42683;DHT22;28293;50.930;3.464;2023-04-29T02:02:23;10.60;85.70
42683;DHT22;28293;50.930;3.464;2023-04-29T02:04:49;10.60;85.80
42683;DHT22;28293;50.930;3.464;2023-04-29T02:07:16;10.60;85.70
42683;DHT22;28293;50.930;3.464;2023-04-29T02:09:41;10.60;85.70
42683;DHT22;28293;50.930;3.464;2023-04-29T02:12:07;10.60;85.60
42683;DHT22;28293;50.930;3.464;2023-04-29T02:14:33;10.60;85.60
42683;DHT22;28293;50.930;3.464;2023-04-29T02:16:59;10.60;85.60
42683;DHT22;28293;50.930;3.464;2023-04-29T02:19:24;10.60;85.60
42683;DHT22;28293;50.930;3.464;2023-04-29T02:21:50;10.60;85.60
42683;DHT22;28293;50.930;3.464;2023-04-29T02:24:16;10.60;85.40
42683;DHT22;28293;50.930;3.464;2023-04-29T02:26:41;10.50;85.50
42683;DHT22;28293;50.930;3.464;2023-04-29T02:29:08;10.60;85.40
42683;DHT22;28293;50.930;3.464;2023-04-29T02:31:33;10.50;84.90
42683;DHT22;28293;50.930;3.464;2023-04-29T02:33:59;10.40;85.10
42683;DHT22;28293;50.930;3.464;2023-04-29T02:36:25;10.40;84.90
42683;DHT22;28293;50.930;3.464;2023-04-29T02:38:51;10.30;84.60
42683;DHT22;28293;50.930;3.464;2023-04-29T02:41:19;10.30;84.20
42683;DHT22;28293;50.930;3.464;2023-04-29T02:43:45;10.30;83.90
42683;DHT22;28293;50.930;3.464;2023-04-29T02:46:14;10.30;84.10
42683;DHT22;28293;50.930;3.464;2023-04-29T02:48:40;10.30;83.90
42683;DHT22;28293;50.930;3.464;2023-04-29T02:51:06;10.40;84.00
42683;DHT22;28293;50.930;3.464;2023-04-29T02:53:31;10.40;83.90
42683;DHT22;28293;50.930;3.464;2023-04-29T02:55:57;10.40;84.10
42683;DHT22;28293;50.930;3.464;2023-04-29T02:58:23;10.40;83.90
42683;DHT22;28293;50.930;3.464;2023-04-29T03:00:49;10.40;84.10
42683;DHT22;28293;50.930;3.464;2023-04-29T03:03:15;10.40;84.00
42683;DHT22;28293;50.930;3.464;2023-04-29T03:05:41;10.50;84.10
42683;DHT22;28293;50.930;3.464;2023-04-29T03:08:07;10.40;84.10
42683;DHT22;28293;50.930;3.464;2023-04-29T03:10:35;10.40;84.10
42683;DHT22;28293;50.930;3.464;2023-04-29T03:13:00;10.40;84.00
42683;DHT22;28293;50.930;3.464;2023-04-29T03:15:26;10.40;84.10
42683;DHT22;28293;50.930;3.464;2023-04-29T03:17:52;10.40;84.20
42683;DHT22;28293;50.930;3.464;2023-04-29T03:20:18;10.40;84.40
42683;DHT22;28293;50.930;3.464;2023-04-29T03:22:44;10.30;84.20
42683;DHT22;28293;50.930;3.464;2023-04-29T03:25:10;10.30;84.10
42683;DHT22;28293;50.930;3.464;2023-04-29T03:27:36;10.20;83.50
42683;DHT22;28293;50.930;3.464;2023-04-29T03:30:02;10.20;83.60
42683;DHT22;28293;50.930;3.464;2023-04-29T03:32:28;10.20;83.40
42683;DHT22;28293;50.930;3.464;2023-04-29T03:34:54;10.20;83.50
42683;DHT22;28293;50.930;3.464;2023-04-29T03:37:20;10.20;83.40
42683;DHT22;28293;50.930;3.464;2023-04-29T03:39:45;10.20;83.20
42683;DHT22;28293;50.930;3.464;2023-04-29T03:42:11;10.20;82.80
42683;DHT22;28293;50.930;3.464;2023-04-29T03:44:37;10.10;82.80
42683;DHT22;28293;50.930;3.464;2023-04-29T03:47:03;10.20;83.00
42683;DHT22;28293;50.930;3.464;2023-04-29T03:49:28;10.20;82.90
42683;DHT22;28293;50.930;3.464;2023-04-29T03:51:54;10.20;83.00
42683;DHT22;28293;50.930;3.464;2023-04-29T03:54:20;10.20;82.90
42683;DHT22;28293;50.930;3.464;2023-04-29T03:56:46;10.20;82.90
42683;DHT22;28293;50.930;3.464;2023-04-29T03:59:11;10.10;83.10
42683;DHT22;28293;50.930;3.464;2023-04-29T04:01:37;10.20;83.20
42683;DHT22;28293;50.930;3.464;2023-04-29T04:04:03;10.20;83.10
42683;DHT22;28293;50.930;3.464;2023-04-29T04:06:29;10.10;83.10
42683;DHT22;28293;50.930;3.464;2023-04-29T04:08:56;10.00;83.20
42683;DHT22;28293;50.930;3.464;2023-04-29T04:11:21;10.00;83.20
42683;DHT22;28293;50.930;3.464;2023-04-29T04:13:47;10.10;83.10
42683;DHT22;28293;50.930;3.464;2023-04-29T04:16:14;10.00;83.00
42683;DHT22;28293;50.930;3.464;2023-04-29T04:18:40;10.00;83.20
42683;DHT22;28293;50.930;3.464;2023-04-29T04:21:09;10.00;83.30
42683;DHT22;28293;50.930;3.464;2023-04-29T04:23:36;10.00;83.40
42683;DHT22;28293;50.930;3.464;2023-04-29T04:26:04;10.00;83.40
42683;DHT22;28293;50.930;3.464;2023-04-29T04:28:30;9.90;83.30
42683;DHT22;28293;50.930;3.464;2023-04-29T04:30:56;10.00;83.30
42683;DHT22;28293;50.930;3.464;2023-04-29T04:33:22;10.00;83.30
42683;DHT22;28293;50.930;3.464;2023-04-29T04:35:47;10.00;83.20
42683;DHT22;28293;50.930;3.464;2023-04-29T04:38:13;9.90;83.10
42683;DHT22;28293;50.930;3.464;2023-04-29T04:40:42;9.90;83.40
42683;DHT22;28293;50.930;3.464;2023-04-29T04:43:08;9.90;83.30
42683;DHT22;28293;50.930;3.464;2023-04-29T04:45:34;9.90;83.50
42683;DHT22;28293;50.930;3.464;2023-04-29T04:48:00;9.90;83.50
42683;DHT22;28293;50.930;3.464;2023-04-29T04:50:29;9.80;83.60
42683;DHT22;28293;50.930;3.464;2023-04-29T04:52:55;9.80;83.90
42683;DHT22;28293;50.930;3.464;2023-04-29T04:55:21;9.80;84.00
42683;DHT22;28293;50.930;3.464;2023-04-29T04:57:47;9.90;83.90
42683;DHT22;28293;50.930;3.464;2023-04-29T05:00:13;9.90;83.80
42683;DHT22;28293;50.930;3.464;2023-04-29T05:02:39;9.80;83.60
42683;DHT22;28293;50.930;3.464;2023-04-29T05:05:04;9.90;83.80
42683;DHT22;28293;50.930;3.464;2023-04-29T05:07:31;9.90;83.50
42683;DHT22;28293;50.930;3.464;2023-04-29T05:09:57;9.90;83.50
42683;DHT22;28293;50.930;3.464;2023-04-29T05:12:23;9.90;83.60
42683;DHT22;28293;50.930;3.464;2023-04-29T05:14:54;9.90;83.50
42683;DHT22;28293;50.930;3.464;2023-04-29T05:17:19;9.90;83.50
42683;DHT22;28293;50.930;3.464;2023-04-29T05:19:45;9.90;83.30
42683;DHT22;28293;50.930;3.464;2023-04-29T05:22:11;9.90;83.10
42683;DHT22;28293;50.930;3.464;2023-04-29T05:24:37;9.90;83.20
42683;DHT22;28293;50.930;3.464;2023-04-29T05:27:02;9.90;83.20
42683;DHT22;28293;50.930;3.464;2023-04-29T05:29:29;9.80;83.40
42683;DHT22;28293;50.930;3.464;2023-04-29T05:31:55;9.80;83.60
42683;DHT22;28293;50.930;3.464;2023-04-29T05:34:21;9.80;83.60
42683;DHT22;28293;50.930;3.464;2023-04-29T05:36:46;9.90;83.80
42683;DHT22;28293;50.930;3.464;2023-04-29T05:39:12;9.80;83.70
42683;DHT22;28293;50.930;3.464;2023-04-29T05:41:37;9.80;83.60
42683;DHT22;28293;50.930;3.464;2023-04-29T05:44:04;9.80;83.70
42683;DHT22;28293;50.930;3.464;2023-04-29T05:46:29;9.80;83.80
42683;DHT22;28293;50.930;3.464;2023-04-29T05:48:55;9.90;83.60
42683;DHT22;28293;50.930;3.464;2023-04-29T05:51:21;9.90;83.60
42683;DHT22;28293;50.930;3.464;2023-04-29T05:53:47;9.90;83.50
42683;DHT22;28293;50.930;3.464;2023-04-29T05:56:12;9.90;83.50
42683;DHT22;28293;50.930;3.464;2023-04-29T05:58:38;9.90;83.50
42683;DHT22;28293;50.930;3.464;2023-04-29T06:01:03;10.00;83.70
42683;DHT22;28293;50.930;3.464;2023-04-29T06:03:29;10.00;83.50
42683;DHT22;28293;50.930;3.464;2023-04-29T06:05:55;10.10;83.80
42683;DHT22;28293;50.930;3.464;2023-04-29T06:08:21;10.10;83.50
42683;DHT22;28293;50.930;3.464;2023-04-29T06:10:47;10.10;83.40
42683;DHT22;28293;50.930;3.464;2023-04-29T06:13:12;10.00;83.50
42683;DHT22;28293;50.930;3.464;2023-04-29T06:15:38;10.10;83.30
42683;DHT22;28293;50.930;3.464;2023-04-29T06:18:04;10.10;83.20
42683;DHT22;28293;50.930;3.464;2023-04-29T06:20:30;10.10;83.10
42683;DHT22;28293;50.930;3.464;2023-04-29T06:22:55;10.10;82.80
42683;DHT22;28293;50.930;3.464;2023-04-29T06:25:21;10.20;82.80
42683;DHT22;28293;50.930;3.464;2023-04-29T06:27:47;10.20;82.30
42683;DHT22;28293;50.930;3.464;2023-04-29T06:30:13;10.20;82.30
42683;DHT22;28293;50.930;3.464;2023-04-29T06:32:39;10.20;82.40
42683;DHT22;28293;50.930;3.464;2023-04-29T06:35:05;10.30;82.20
42683;DHT22;28293;50.930;3.464;2023-04-29T06:37:31;10.20;81.60
42683;DHT22;28293;50.930;3.464;2023-04-29T06:39:57;10.20;81.50
42683;DHT22;28293;50.930;3.464;2023-04-29T06:42:22;10.30;81.80
42683;DHT22;28293;50.930;3.464;2023-04-29T06:44:48;10.20;81.40
42683;DHT22;28293;50.930;3.464;2023-04-29T06:47:14;10.30;81.60
42683;DHT22;28293;50.930;3.464;2023-04-29T06:49:39;10.40;81.30
42683;DHT22;28293;50.930;3.464;2023-04-29T06:52:08;10.40;81.30
42683;DHT22;28293;50.930;3.464;2023-04-29T06:54:34;10.40;81.40
42683;DHT22;28293;50.930;3.464;2023-04-29T06:57:00;10.40;81.10
42683;DHT22;28293;50.930;3.464;2023-04-29T06:59:26;10.60;81.30
42683;DHT22;28293;50.930;3.464;2023-04-29T07:01:52;10.60;81.00
42683;DHT22;28293;50.930;3.464;2023-04-29T07:04:17;10.60;80.60
42683;DHT22;28293;50.930;3.464;2023-04-29T07:06:43;10.60;80.80
42683;DHT22;28293;50.930;3.464;2023-04-29T07:09:12;10.60;80.70
42683;DHT22;28293;50.930;3.464;2023-04-29T07:11:40;10.60;80.70
42683;DHT22;28293;50.930;3.464;2023-04-29T07:14:06;10.60;80.70
42683;DHT22;28293;50.930;3.464;2023-04-29T07:16:32;10.70;80.70
42683;DHT22;28293;50.930;3.464;2023-04-29T07:18:58;10.80;80.70
42683;DHT22;28293;50.930;3.464;2023-04-29T07:21:24;10.70;80.50
42683;DHT22;28293;50.930;3.464;2023-04-29T07:23:51;10.70;80.40
42683;DHT22;28293;50.930;3.464;2023-04-29T07:26:17;10.80;80.80
42683;DHT22;28293;50.930;3.464;2023-04-29T07:28:43;10.80;80.60
42683;DHT22;28293;50.930;3.464;2023-04-29T07:31:10;10.90;79.90
42683;DHT22;28293;50.930;3.464;2023-04-29T07:33:37;11.00;80.20
42683;DHT22;28293;50.930;3.464;2023-04-29T07:36:03;11.10;80.10
42683;DHT22;28293;50.930;3.464;2023-04-29T07:38:29;10.90;79.80
42683;DHT22;28293;50.930;3.464;2023-04-29T07:40:55;11.10;80.30
42683;DHT22;28293;50.930;3.464;2023-04-29T07:43:21;11.10;80.40
42683;DHT22;28293;50.930;3.464;2023-04-29T07:45:47;11.10;80.30
42683;DHT22;28293;50.930;3.464;2023-04-29T07:48:13;11.10;79.90
42683;DHT22;28293;50.930;3.464;2023-04-29T07:50:39;11.10;79.40
42683;DHT22;28293;50.930;3.464;2023-04-29T07:53:05;11.10;79.60
42683;DHT22;28293;50.930;3.464;2023-04-29T07:55:31;11.10;79.60
42683;DHT22;28293;50.930;3.464;2023-04-29T07:57:57;11.30;79.20
42683;DHT22;28293;50.930;3.464;2023-04-29T08:00:23;11.30;79.10
42683;DHT22;28293;50.930;3.464;2023-04-29T08:02:52;11.40;78.90
42683;DHT22;28293;50.930;3.464;2023-04-29T08:05:18;11.40;78.90
42683;DHT22;28293;50.930;3.464;2023-04-29T08:07:48;11.50;78.80
42683;DHT22;28293;50.930;3.464;2023-04-29T08:10:15;11.60;78.80
42683;DHT22;28293;50.930;3.464;2023-04-29T08:12:44;11.80;78.40
42683;DHT22;28293;50.930;3.464;2023-04-29T08:15:09;11.90;78.10
42683;DHT22;28293;50.930;3.464;2023-04-29T08:17:35;11.80;77.60
42683;DHT22;28293;50.930;3.464;2023-04-29T08:20:01;11.70;77.30
42683;DHT22;28293;50.930;3.464;2023-04-29T08:22:27;11.60;77.80
42683;DHT22;28293;50.930;3.464;2023-04-29T08:24:52;11.80;77.70
42683;DHT22;28293;50.930;3.464;2023-04-29T08:27:18;11.80;77.60
42683;DHT22;28293;50.930;3.464;2023-04-29T08:29:45;11.90;77.00
42683;DHT22;28293;50.930;3.464;2023-04-29T08:32:11;11.90;77.20
42683;DHT22;28293;50.930;3.464;2023-04-29T08:34:37;11.90;77.30
42683;DHT22;28293;50.930;3.464;2023-04-29T08:37:03;12.00;76.60
42683;DHT22;28293;50.930;3.464;2023-04-29T08:39:29;12.00;76.60
42683;DHT22;28293;50.930;3.464;2023-04-29T08:41:58;12.10;76.70
42683;DHT22;28293;50.930;3.464;2023-04-29T08:44:27;12.30;76.50
42683;DHT22;28293;50.930;3.464;2023-04-29T08:46:54;12.60;76.30
42683;DHT22;28293;50.930;3.464;2023-04-29T08:49:21;12.80;75.00
42683;DHT22;28293;50.930;3.464;2023-04-29T08:51:48;13.00;75.40
42683;DHT22;28293;50.930;3.464;2023-04-29T08:54:16;13.20;73.90
42683;DHT22;28293;50.930;3.464;2023-04-29T08:56:44;13.10;73.30
42683;DHT22;28293;50.930;3.464;2023-04-29T08:59:14;13.40;73.10
42683;DHT22;28293;50.930;3.464;2023-04-29T09:01:42;13.30;71.10
42683;DHT22;28293;50.930;3.464;2023-04-29T09:04:44;13.40;70.80
42683;DHT22;28293;50.930;3.464;2023-04-29T09:07:12;13.60;71.00
42683;DHT22;28293;50.930;3.464;2023-04-29T09:09:38;13.60;69.90
42683;DHT22;28293;50.930;3.464;2023-04-29T09:12:04;13.80;68.90
42683;DHT22;28293;50.930;3.464;2023-04-29T09:14:31;13.80;68.60
42683;DHT22;28293;50.930;3.464;2023-04-29T09:17:00;13.60;68.50
42683;DHT22;28293;50.930;3.464;2023-04-29T09:19:34;13.60;68.60
42683;DHT22;28293;50.930;3.464;2023-04-29T09:22:01;13.40;69.20
42683;DHT22;28293;50.930;3.464;2023-04-29T09:24:28;13.50;70.10
42683;DHT22;28293;50.930;3.464;2023-04-29T09:26:55;13.40;69.20
42683;DHT22;28293;50.930;3.464;2023-04-29T09:29:21;13.30;70.20
42683;DHT22;28293;50.930;3.464;2023-04-29T09:31:47;13.30;69.60
42683;DHT22;28293;50.930;3.464;2023-04-29T09:34:13;13.30;69.70
42683;DHT22;28293;50.930;3.464;2023-04-29T09:39:20;13.60;69.60
42683;DHT22;28293;50.930;3.464;2023-04-29T09:44:15;13.90;67.70
42683;DHT22;28293;50.930;3.464;2023-04-29T09:46:41;14.20;68.30
42683;DHT22;28293;50.930;3.464;2023-04-29T09:49:25;14.20;66.90
42683;DHT22;28293;50.930;3.464;2023-04-29T09:51:52;14.00;66.40
42683;DHT22;28293;50.930;3.464;2023-04-29T09:54:23;14.10;67.90
42683;DHT22;28293;50.930;3.464;2023-04-29T09:56:50;14.30;67.20
42683;DHT22;28293;50.930;3.464;2023-04-29T09:59:17;14.10;66.00
42683;DHT22;28293;50.930;3.464;2023-04-29T10:01:43;14.00;67.00
42683;DHT22;28293;50.930;3.464;2023-04-29T10:04:10;14.00;66.40
42683;DHT22;28293;50.930;3.464;2023-04-29T10:06:38;13.70;66.30
42683;DHT22;28293;50.930;3.464;2023-04-29T10:09:06;13.80;66.10
42683;DHT22;28293;50.930;3.464;2023-04-29T10:11:33;14.00;66.20
42683;DHT22;28293;50.930;3.464;2023-04-29T10:13:59;13.90;66.20
42683;DHT22;28293;50.930;3.464;2023-04-29T10:16:30;14.10;66.50
42683;DHT22;28293;50.930;3.464;2023-04-29T10:19:00;14.10;67.40
42683;DHT22;28293;50.930;3.464;2023-04-29T10:21:29;14.30;66.10
42683;DHT22;28293;50.930;3.464;2023-04-29T10:23:59;14.20;65.90
42683;DHT22;28293;50.930;3.464;2023-04-29T10:26:27;14.50;65.30
42683;DHT22;28293;50.930;3.464;2023-04-29T10:28:57;14.50;64.40
42683;DHT22;28293;50.930;3.464;2023-04-29T10:31:26;14.60;64.80
42683;DHT22;28293;50.930;3.464;2023-04-29T10:33:55;14.60;64.50
42683;DHT22;28293;50.930;3.464;2023-04-29T10:36:22;14.50;64.70
42683;DHT22;28293;50.930;3.464;2023-04-29T10:38:50;14.10;65.70
42683;DHT22;28293;50.930;3.464;2023-04-29T10:41:22;14.00;66.60
42683;DHT22;28293;50.930;3.464;2023-04-29T10:43:52;14.10;67.10
42683;DHT22;28293;50.930;3.464;2023-04-29T10:48:50;14.10;66.10
42683;DHT22;28293;50.930;3.464;2023-04-29T10:51:42;14.30;66.10
42683;DHT22;28293;50.930;3.464;2023-04-29T10:54:14;14.20;65.90
42683;DHT22;28293;50.930;3.464;2023-04-29T10:56:48;14.10;66.10
42683;DHT22;28293;50.930;3.464;2023-04-29T11:02:01;14.60;65.50
42683;DHT22;28293;50.930;3.464;2023-04-29T11:04:26;14.50;65.00
42683;DHT22;28293;50.930;3.464;2023-04-29T11:06:56;14.60;65.70
42683;DHT22;28293;50.930;3.464;2023-04-29T11:09:28;14.80;64.90
42683;DHT22;28293;50.930;3.464;2023-04-29T11:16:58;16.10;61.00
42683;DHT22;28293;50.930;3.464;2023-04-29T11:19:29;16.00;58.70
42683;DHT22;28293;50.930;3.464;2023-04-29T11:24:47;15.60;60.80
42683;DHT22;28293;50.930;3.464;2023-04-29T11:27:14;15.20;61.60
42683;DHT22;28293;50.930;3.464;2023-04-29T11:29:40;15.40;62.50
42683;DHT22;28293;50.930;3.464;2023-04-29T11:32:07;15.40;61.90
42683;DHT22;28293;50.930;3.464;2023-04-29T11:34:32;15.30;60.90
42683;DHT22;28293;50.930;3.464;2023-04-29T11:36:58;15.60;60.90
42683;DHT22;28293;50.930;3.464;2023-04-29T11:39:26;16.00;60.00
42683;DHT22;28293;50.930;3.464;2023-04-29T11:41:51;16.20;60.20
42683;DHT22;28293;50.930;3.464;2023-04-29T11:44:27;16.30;59.00
42683;DHT22;28293;50.930;3.464;2023-04-29T11:46:53;15.80;59.50
42683;DHT22;28293;50.930;3.464;2023-04-29T11:49:37;16.10;59.90
42683;DHT22;28293;50.930;3.464;2023-04-29T11:52:03;16.20;59.10
42683;DHT22;28293;50.930;3.464;2023-04-29T11:54:29;16.10;58.40
42683;DHT22;28293;50.930;3.464;2023-04-29T11:56:57;15.90;60.70
42683;DHT22;28293;50.930;3.464;2023-04-29T11:59:23;15.70;60.70
42683;DHT22;28293;50.930;3.464;2023-04-29T12:01:49;15.70;62.50
42683;DHT22;28293;50.930;3.464;2023-04-29T12:04:16;16.00;62.10
42683;DHT22;28293;50.930;3.464;2023-04-29T12:06:42;15.70;62.50
42683;DHT22;28293;50.930;3.464;2023-04-29T12:09:08;15.60;60.90
42683;DHT22;28293;50.930;3.464;2023-04-29T12:11:35;15.40;62.30
42683;DHT22;28293;50.930;3.464;2023-04-29T12:14:02;15.80;61.90
42683;DHT22;28293;50.930;3.464;2023-04-29T12:16:31;15.70;61.00
42683;DHT22;28293;50.930;3.464;2023-04-29T12:18:58;15.70;61.60
42683;DHT22;28293;50.930;3.464;2023-04-29T12:21:24;15.80;61.20
42683;DHT22;28293;50.930;3.464;2023-04-29T12:23:52;16.20;60.30
42683;DHT22;28293;50.930;3.464;2023-04-29T12:26:18;16.30;60.00
42683;DHT22;28293;50.930;3.464;2023-04-29T12:28:46;16.30;58.80
42683;DHT22;28293;50.930;3.464;2023-04-29T12:31:14;16.50;59.40
42683;DHT22;28293;50.930;3.464;2023-04-29T12:33:42;16.40;58.80
42683;DHT22;28293;50.930;3.464;2023-04-29T12:36:17;16.60;59.40
42683;DHT22;28293;50.930;3.464;2023-04-29T12:38:44;16.80;57.90
42683;DHT22;28293;50.930;3.464;2023-04-29T12:41:10;16.60;58.30
42683;DHT22;28293;50.930;3.464;2023-04-29T12:43:38;16.90;58.00
42683;DHT22;28293;50.930;3.464;2023-04-29T12:46:05;16.60;59.30
42683;DHT22;28293;50.930;3.464;2023-04-29T12:48:40;16.40;58.10
42683;DHT22;28293;50.930;3.464;2023-04-29T12:51:09;16.20;58.70
42683;DHT22;28293;50.930;3.464;2023-04-29T12:53:35;16.10;58.30
42683;DHT22;28293;50.930;3.464;2023-04-29T12:56:01;16.10;58.30
42683;DHT22;28293;50.930;3.464;2023-04-29T12:58:30;16.40;57.80
42683;DHT22;28293;50.930;3.464;2023-04-29T13:00:56;16.30;57.50
42683;DHT22;28293;50.930;3.464;2023-04-29T13:03:22;16.50;58.40
42683;DHT22;28293;50.930;3.464;2023-04-29T13:05:48;16.70;57.50
42683;DHT22;28293;50.930;3.464;2023-04-29T13:08:17;17.00;57.40
42683;DHT22;28293;50.930;3.464;2023-04-29T13:10:43;16.80;56.20
42683;DHT22;28293;50.930;3.464;2023-04-29T13:13:08;16.80;56.60
42683;DHT22;28293;50.930;3.464;2023-04-29T13:15:35;16.90;57.50
42683;DHT22;28293;50.930;3.464;2023-04-29T13:18:01;17.30;55.50
42683;DHT22;28293;50.930;3.464;2023-04-29T13:20:27;17.50;54.20
42683;DHT22;28293;50.930;3.464;2023-04-29T13:22:53;17.40;55.60
42683;DHT22;28293;50.930;3.464;2023-04-29T13:25:18;17.60;54.60
42683;DHT22;28293;50.930;3.464;2023-04-29T13:27:44;17.40;55.20
42683;DHT22;28293;50.930;3.464;2023-04-29T13:30:10;17.60;53.90
42683;DHT22;28293;50.930;3.464;2023-04-29T13:32:35;17.60;53.30
42683;DHT22;28293;50.930;3.464;2023-04-29T13:35:01;17.60;55.20
42683;DHT22;28293;50.930;3.464;2023-04-29T13:37:28;18.10;53.80
42683;DHT22;28293;50.930;3.464;2023-04-29T13:39:54;17.70;54.70
42683;DHT22;28293;50.930;3.464;2023-04-29T13:42:19;17.80;54.10
42683;DHT22;28293;50.930;3.464;2023-04-29T13:44:45;17.50;55.10
42683;DHT22;28293;50.930;3.464;2023-04-29T13:47:14;17.30;55.70
42683;DHT22;28293;50.930;3.464;2023-04-29T13:49:40;16.90;55.70
42683;DHT22;28293;50.930;3.464;2023-04-29T13:52:11;16.70;56.10
42683;DHT22;28293;50.930;3.464;2023-04-29T13:54:38;16.80;57.00
42683;DHT22;28293;50.930;3.464;2023-04-29T13:57:03;17.00;56.70
42683;DHT22;28293;50.930;3.464;2023-04-29T13:59:32;17.00;56.50
42683;DHT22;28293;50.930;3.464;2023-04-29T14:01:58;17.20;56.70
42683;DHT22;28293;50.930;3.464;2023-04-29T14:04:25;17.50;56.40
42683;DHT22;28293;50.930;3.464;2023-04-29T14:06:51;17.30;55.00
42683;DHT22;28293;50.930;3.464;2023-04-29T14:09:17;17.30;55.00
42683;DHT22;28293;50.930;3.464;2023-04-29T14:11:44;17.10;55.90
42683;DHT22;28293;50.930;3.464;2023-04-29T14:14:10;17.20;55.20
42683;DHT22;28293;50.930;3.464;2023-04-29T14:16:36;17.10;56.00
42683;DHT22;28293;50.930;3.464;2023-04-29T14:19:02;16.90;56.10
42683;DHT22;28293;50.930;3.464;2023-04-29T14:21:28;17.10;56.40
42683;DHT22;28293;50.930;3.464;2023-04-29T14:23:54;17.10;55.20
42683;DHT22;28293;50.930;3.464;2023-04-29T14:26:20;17.30;54.90
42683;DHT22;28293;50.930;3.464;2023-04-29T14:28:45;17.50;55.50
42683;DHT22;28293;50.930;3.464;2023-04-29T14:31:11;17.50;54.70
42683;DHT22;28293;50.930;3.464;2023-04-29T14:33:38;17.70;54.80
42683;DHT22;28293;50.930;3.464;2023-04-29T14:36:05;17.60;54.90
42683;DHT22;28293;50.930;3.464;2023-04-29T14:38:32;17.50;54.90
42683;DHT22;28293;50.930;3.464;2023-04-29T14:40:58;17.10;55.00
42683;DHT22;28293;50.930;3.464;2023-04-29T14:43:23;17.10;55.50
42683;DHT22;28293;50.930;3.464;2023-04-29T14:45:49;17.10;56.00
42683;DHT22;28293;50.930;3.464;2023-04-29T14:48:15;17.30;55.90
42683;DHT22;28293;50.930;3.464;2023-04-29T14:50:42;17.30;54.80
42683;DHT22;28293;50.930;3.464;2023-04-29T14:53:08;17.40;55.20
42683;DHT22;28293;50.930;3.464;2023-04-29T14:55:34;17.40;55.20
42683;DHT22;28293;50.930;3.464;2023-04-29T14:58:00;17.20;54.30
42683;DHT22;28293;50.930;3.464;2023-04-29T15:00:29;17.00;54.60
42683;DHT22;28293;50.930;3.464;2023-04-29T15:02:55;16.90;56.20
42683;DHT22;28293;50.930;3.464;2023-04-29T15:05:21;16.90;57.30
42683;DHT22;28293;50.930;3.464;2023-04-29T15:07:47;16.70;57.20
42683;DHT22;28293;50.930;3.464;2023-04-29T15:10:12;16.70;56.50
42683;DHT22;28293;50.930;3.464;2023-04-29T15:12:38;16.80;56.90
42683;DHT22;28293;50.930;3.464;2023-04-29T15:15:04;17.10;57.10
42683;DHT22;28293;50.930;3.464;2023-04-29T15:17:30;16.80;56.60
42683;DHT22;28293;50.930;3.464;2023-04-29T15:19:55;16.80;56.10
42683;DHT22;28293;50.930;3.464;2023-04-29T15:22:21;16.60;57.50
42683;DHT22;28293;50.930;3.464;2023-04-29T15:24:47;16.60;61.20
42683;DHT22;28293;50.930;3.464;2023-04-29T15:27:12;16.40;63.60
42683;DHT22;28293;50.930;3.464;2023-04-29T15:29:40;16.40;64.30
42683;DHT22;28293;50.930;3.464;2023-04-29T15:32:06;16.60;64.80
42683;DHT22;28293;50.930;3.464;2023-04-29T15:34:32;16.60;64.90
42683;DHT22;28293;50.930;3.464;2023-04-29T15:36:57;16.90;63.60
42683;DHT22;28293;50.930;3.464;2023-04-29T15:39:24;16.80;63.50
42683;DHT22;28293;50.930;3.464;2023-04-29T15:41:49;16.40;64.20
42683;DHT22;28293;50.930;3.464;2023-04-29T15:44:15;16.40;64.60
42683;DHT22;28293;50.930;3.464;2023-04-29T15:46:41;16.40;63.40
42683;DHT22;28293;50.930;3.464;2023-04-29T15:49:06;16.30;64.10
42683;DHT22;28293;50.930;3.464;2023-04-29T15:51:32;16.10;64.20
42683;DHT22;28293;50.930;3.464;2023-04-29T15:53:58;16.20;64.60
42683;DHT22;28293;50.930;3.464;2023-04-29T15:56:23;16.40;64.20
42683;DHT22;28293;50.930;3.464;2023-04-29T15:58:50;16.40;63.70
42683;DHT22;28293;50.930;3.464;2023-04-29T16:01:16;16.40;64.50
42683;DHT22;28293;50.930;3.464;2023-04-29T16:03:41;16.40;64.00
42683;DHT22;28293;50.930;3.464;2023-04-29T16:06:07;16.40;63.50